Time;durP1;ratioP1;P1;durP2;ratioP2;P2;SDS_P1;SDS_P2;PMS_P1;PMS_P2;Temp;Humidity;BMP_temperature;BMP_pressure;BME280_temperature;BME280_humidity;BME280_pressure;Samples;Min_cycle;Max_cycle;Signal;HPM_P1;HPM_P2
2021/11/17 02:26:46;;;;;;;21.05;15.20;;;11.70;72.10;;;;;;4996542;28;20084;-67
2021/11/17 02:29:30;;;;;;;21.45;16.27;;;11.70;72.50;;;;;;4996099;28;20023;-68
2021/11/17 02:32:19;;;;;;;21.73;15.93;;;11.80;73.20;;;;;;4996366;28;20109;-65
2021/11/17 02:35:20;;;;;;;20.25;14.85;;;11.70;73.60;;;;;;4996695;28;20026;-65
2021/11/17 02:37:47;;;;;;;19.85;15.07;;;11.70;73.60;;;;;;4994094;28;20030;-68
2021/11/17 02:40:40;;;;;;;21.95;15.38;;;11.70;73.50;;;;;;4995902;28;20044;-65
2021/11/17 02:43:09;;;;;;;18.70;14.32;;;11.70;73.40;;;;;;4996290;28;20058;-67
2021/11/17 02:45:59;;;;;;;20.05;14.00;;;11.70;73.10;;;;;;4995868;28;20027;-65
2021/11/17 02:48:30;;;;;;;18.30;14.13;;;11.70;73.20;;;;;;4996173;28;20023;-65
2021/11/17 02:51:16;;;;;;;19.25;13.95;;;11.70;72.00;;;;;;4996114;28;20041;-67
2021/11/17 02:53:44;;;;;;;19.15;14.93;;;11.70;71.60;;;;;;4995680;28;20027;-68
2021/11/17 02:56:40;;;;;;;18.65;13.80;;;11.70;71.50;;;;;;4996237;28;20065;-65
2021/11/17 02:59:21;;;;;;;16.80;13.52;;;11.70;71.70;;;;;;4996025;28;20042;-65
2021/11/17 03:01:56;;;;;;;23.50;13.95;;;11.70;71.70;;;;;;4996096;28;20097;-68
2021/11/17 03:04:55;;;;;;;21.50;14.82;;;11.70;71.30;;;;;;4996192;28;20026;-67
2021/11/17 03:07:30;;;;;;;20.67;14.20;;;11.80;71.00;;;;;;4995776;28;20029;-68
2021/11/17 03:10:04;;;;;;;19.40;13.95;;;11.80;70.90;;;;;;4995771;28;20113;-65
2021/11/17 03:12:51;;;;;;;19.63;14.25;;;11.80;70.90;;;;;;4995938;28;20018;-68
2021/11/17 03:15:29;;;;;;;18.42;13.75;;;11.70;70.90;;;;;;4994419;28;20394;-65
2021/11/17 03:18:10;;;;;;;17.90;14.57;;;11.80;71.20;;;;;;4995475;28;20379;-65
2021/11/17 03:20:35;;;;;;;17.48;13.63;;;11.80;71.10;;;;;;4995343;28;20041;-65
2021/11/17 03:23:22;;;;;;;19.08;14.32;;;11.80;71.30;;;;;;4995653;28;20023;-65
2021/11/17 03:26:04;;;;;;;18.00;13.63;;;11.80;71.40;;;;;;4995506;28;20036;-65
2021/11/17 03:28:39;;;;;;;16.73;13.20;;;11.80;71.50;;;;;;4994298;28;20027;-65
2021/11/17 03:31:35;;;;;;;20.27;13.82;;;11.80;71.10;;;;;;4995557;28;20261;-67
2021/11/17 03:34:31;;;;;;;19.95;14.07;;;11.80;70.90;;;;;;4994495;28;20030;-65
2021/11/17 03:37:41;;;;;;;19.50;14.30;;;11.80;71.20;;;;;;4995374;28;20038;-65
2021/11/17 03:40:44;;;;;;;20.35;14.60;;;11.70;71.30;;;;;;4994096;28;20048;-68
2021/11/17 03:43:19;;;;;;;16.63;13.50;;;11.70;71.20;;;;;;4994098;28;20390;-68
2021/11/17 03:45:44;;;;;;;17.30;13.80;;;11.80;71.10;;;;;;4995225;28;20113;-65
2021/11/17 03:48:55;;;;;;;15.88;13.05;;;11.70;71.20;;;;;;4995138;28;20097;-65
2021/11/17 03:51:21;;;;;;;20.23;14.18;;;11.80;71.30;;;;;;4995023;28;20033;-67
2021/11/17 03:53:55;;;;;;;21.02;14.35;;;11.80;71.60;;;;;;4994835;28;20035;-65
2021/11/17 03:57:00;;;;;;;19.60;14.25;;;11.80;71.40;;;;;;4994959;28;20022;-67
2021/11/17 03:59:48;;;;;;;17.17;13.18;;;11.70;71.20;;;;;;4993664;28;20113;-68
2021/11/17 04:02:33;;;;;;;18.20;13.80;;;11.70;71.00;;;;;;4994738;28;20052;-67
2021/11/17 04:05:23;;;;;;;18.48;13.70;;;11.70;71.20;;;;;;4993863;28;20022;-67
2021/11/17 04:08:13;;;;;;;19.38;14.40;;;11.70;71.10;;;;;;4993661;28;20026;-65
2021/11/17 04:10:51;;;;;;;20.42;14.07;;;11.70;70.90;;;;;;4994466;28;20033;-67
2021/11/17 04:13:48;;;;;;;19.20;13.65;;;11.70;70.90;;;;;;4994760;28;20031;-67
2021/11/17 04:16:32;;;;;;;19.52;15.10;;;11.70;71.10;;;;;;4994529;28;20022;-65
2021/11/17 04:19:01;;;;;;;20.95;15.35;;;11.60;70.80;;;;;;4994286;28;20070;-67
2021/11/17 04:21:50;;;;;;;19.77;14.32;;;11.60;71.20;;;;;;4994222;28;20040;-67
2021/11/17 04:24:35;;;;;;;21.33;14.55;;;11.60;70.90;;;;;;4994836;28;20038;-65
2021/11/17 04:27:31;;;;;;;19.55;13.77;;;11.60;70.80;;;;;;4994356;28;20089;-67
2021/11/17 04:30:12;;;;;;;19.98;14.35;;;11.60;69.70;;;;;;4993126;28;20482;-68
2021/11/17 04:33:08;;;;;;;17.45;13.70;;;11.60;69.50;;;;;;4994144;28;20042;-68
2021/11/17 04:35:52;;;;;;;19.10;15.23;;;11.60;69.60;;;;;;4994062;28;20030;-67
2021/11/17 04:38:49;;;;;;;20.58;14.07;;;11.60;69.40;;;;;;4994230;28;20120;-64
2021/11/17 04:41:21;;;;;;;18.02;13.18;;;11.60;69.80;;;;;;5009437;28;20022;-68
2021/11/17 04:43:53;;;;;;;19.65;14.05;;;11.60;69.90;;;;;;4994158;28;20030;-65
2021/11/17 04:46:50;;;;;;;18.05;13.93;;;11.60;69.00;;;;;;4994221;28;20081;-65
2021/11/17 04:49:49;;;;;;;18.80;13.85;;;11.60;68.00;;;;;;4993506;28;20058;-67
2021/11/17 04:52:49;;;;;;;18.63;13.45;;;11.70;67.80;;;;;;4994259;28;20425;-64
2021/11/17 04:55:30;;;;;;;16.88;13.40;;;11.60;67.80;;;;;;4993938;28;20471;-65
2021/11/17 04:58:13;;;;;;;19.48;13.15;;;11.60;68.00;;;;;;4993959;28;20026;-67
2021/11/17 05:00:57;;;;;;;18.27;13.52;;;11.60;68.00;;;;;;4993655;28;20058;-65
2021/11/17 05:04:02;;;;;;;16.75;12.93;;;11.60;68.10;;;;;;4993790;28;20019;-64
2021/11/17 05:06:55;;;;;;;19.55;13.90;;;11.60;68.00;;;;;;4991862;28;20041;-67
2021/11/17 05:09:45;;;;;;;18.05;14.10;;;11.60;68.00;;;;;;4993648;28;20112;-65
2021/11/17 05:12:49;;;;;;;19.65;14.88;;;11.50;68.30;;;;;;4993668;28;20471;-65
2021/11/17 05:15:33;;;;;;;18.67;14.05;;;11.50;68.10;;;;;;4993484;28;20478;-66
2021/11/17 05:17:58;;;;;;;20.30;14.18;;;11.50;68.20;;;;;;4993904;28;20089;-65
2021/11/17 05:20:45;;;;;;;20.88;14.45;;;11.50;68.20;;;;;;4993917;28;20034;-65
2021/11/17 05:23:49;;;;;;;18.50;14.23;;;11.50;68.00;;;;;;4993736;28;20483;-65
2021/11/17 05:26:36;;;;;;;21.05;14.15;;;11.50;68.00;;;;;;4993523;28;20114;-65
2021/11/17 05:29:13;;;;;;;17.80;14.38;;;11.50;67.90;;;;;;4993621;28;20058;-65
2021/11/17 05:32:05;;;;;;;16.48;13.65;;;11.50;68.10;;;;;;4993624;28;20382;-65
2021/11/17 05:35:08;;;;;;;18.00;13.70;;;11.50;67.90;;;;;;4992459;28;20037;-65
2021/11/17 05:37:37;;;;;;;18.40;13.68;;;11.40;68.00;;;;;;4993412;28;20422;-65
2021/11/17 05:40:05;;;;;;;18.83;14.48;;;11.40;68.20;;;;;;4993476;28;20037;-65
2021/11/17 05:43:04;;;;;;;18.15;12.65;;;11.40;68.30;;;;;;4993519;28;20023;-65
2021/11/17 05:45:38;;;;;;;19.85;14.15;;;11.50;68.30;;;;;;5001632;28;20059;-66
2021/11/17 05:48:31;;;;;;;18.80;13.80;;;11.50;68.30;;;;;;4993796;28;20034;-65
2021/11/17 05:51:31;;;;;;;21.10;14.50;;;11.50;68.00;;;;;;4992115;28;20037;-65
2021/11/17 05:54:19;;;;;;;18.48;13.43;;;11.50;68.40;;;;;;4993287;28;20034;-65
2021/11/17 05:56:54;;;;;;;20.77;14.63;;;11.50;68.50;;;;;;4992247;28;20019;-66
2021/11/17 05:59:44;;;;;;;20.42;14.70;;;11.50;68.70;;;;;;4993510;28;20045;-65
2021/11/17 06:02:46;;;;;;;19.65;13.45;;;11.40;68.70;;;;;;4992942;28;20077;-69
2021/11/17 06:05:12;;;;;;;16.80;13.20;;;11.50;69.00;;;;;;4993447;28;20033;-66
2021/11/17 06:07:37;;;;;;;17.00;14.00;;;11.40;68.00;;;;;;4992058;28;20034;-66
2021/11/17 06:10:16;;;;;;;18.17;13.82;;;11.50;68.30;;;;;;4993200;28;20026;-65
2021/11/17 06:12:42;;;;;;;18.30;14.07;;;11.50;68.00;;;;;;4993451;28;20027;-66
2021/11/17 06:15:12;;;;;;;17.48;13.65;;;11.50;67.80;;;;;;4992975;28;20097;-65
2021/11/17 06:17:39;;;;;;;17.63;13.70;;;11.50;67.80;;;;;;4992739;28;20061;-65
2021/11/17 06:20:08;;;;;;;17.15;13.23;;;11.50;68.00;;;;;;4993272;28;20057;-65
2021/11/17 06:22:35;;;;;;;16.48;13.55;;;11.50;68.00;;;;;;4993382;28;20038;-66
2021/11/17 06:25:07;;;;;;;19.40;13.32;;;11.50;68.00;;;;;;4993135;28;20054;-66
2021/11/17 06:27:37;;;;;;;17.33;13.65;;;11.60;67.80;;;;;;4992775;28;20521;-65
2021/11/17 06:30:06;;;;;;;15.63;13.27;;;11.60;67.80;;;;;;4996573;28;20034;-65
2021/11/17 06:32:31;;;;;;;17.90;13.85;;;11.60;68.00;;;;;;4996460;28;20110;-65
2021/11/17 06:35:00;;;;;;;17.42;13.07;;;11.60;67.90;;;;;;4996280;28;20101;-67
2021/11/17 06:37:28;;;;;;;20.00;15.15;;;11.70;67.60;;;;;;4996218;28;20378;-66
2021/11/17 06:39:59;;;;;;;17.52;13.82;;;11.70;67.50;;;;;;4996085;28;20038;-65
2021/11/17 06:42:30;;;;;;;20.45;13.73;;;11.70;67.60;;;;;;4996290;28;20463;-66
2021/11/17 06:44:56;;;;;;;19.77;14.30;;;11.70;67.60;;;;;;4996176;28;20605;-66
2021/11/17 06:47:22;;;;;;;19.35;14.57;;;11.70;67.40;;;;;;4996094;28;20034;-66
2021/11/17 06:49:48;;;;;;;20.60;14.55;;;11.70;67.50;;;;;;4995931;28;20062;-65
2021/11/17 06:52:14;;;;;;;19.35;14.10;;;11.70;67.70;;;;;;4996078;28;20558;-65
2021/11/17 06:54:40;;;;;;;18.13;14.45;;;11.70;67.60;;;;;;4995850;28;20030;-66
2021/11/17 06:57:06;;;;;;;20.45;14.80;;;11.70;67.70;;;;;;4995973;28;20398;-65
2021/11/17 06:59:32;;;;;;;22.27;15.27;;;11.70;67.90;;;;;;4995826;28;20068;-67
2021/11/17 07:02:05;;;;;;;21.92;15.73;;;11.80;68.00;;;;;;4995121;28;20046;-69
2021/11/17 07:04:35;;;;;;;23.17;15.00;;;11.80;68.50;;;;;;4995900;28;20034;-68
2021/11/17 07:07:02;;;;;;;22.38;13.73;;;11.80;68.60;;;;;;4995646;28;20537;-68
2021/11/17 07:09:27;;;;;;;27.73;15.45;;;11.80;68.70;;;;;;4994425;28;20106;-68
2021/11/17 07:11:53;;;;;;;25.42;14.15;;;11.80;68.90;;;;;;4996000;28;20386;-68
2021/11/17 07:14:22;;;;;;;23.52;14.60;;;11.90;68.90;;;;;;4995581;28;20034;-69
2021/11/17 07:16:49;;;;;;;18.65;13.50;;;11.90;69.10;;;;;;4995856;28;20034;-69
2021/11/17 07:19:14;;;;;;;24.33;14.45;;;11.90;68.70;;;;;;4995551;28;20065;-67
2021/11/17 07:21:45;;;;;;;17.70;13.70;;;11.90;68.30;;;;;;4995447;28;20046;-76
2021/11/17 07:24:11;;;;;;;35.67;16.35;;;11.90;68.10;;;;;;4995311;28;20402;-70
2021/11/17 07:26:37;;;;;;;20.35;13.88;;;11.90;67.30;;;;;;4995384;28;20065;-79
2021/11/17 07:29:03;;;;;;;21.98;15.32;;;11.90;67.40;;;;;;4995297;28;20061;-74
2021/11/17 07:31:29;;;;;;;21.42;13.85;;;11.90;67.40;;;;;;4995417;28;20041;-67
2021/11/17 07:33:54;;;;;;;25.52;15.80;;;11.90;67.50;;;;;;4979724;28;20483;-81
2021/11/17 07:36:21;;;;;;;18.55;13.95;;;11.90;68.30;;;;;;4974514;28;20518;-78
2021/11/17 07:38:48;;;;;;;19.33;14.65;;;12.00;75.30;;;;;;4975349;28;20043;-76
2021/11/17 07:41:15;;;;;;;18.13;14.27;;;12.10;76.50;;;;;;4986573;28;20027;-79
2021/11/17 07:43:41;;;;;;;21.75;14.82;;;12.00;76.10;;;;;;4993172;28;20035;-76
2021/11/17 07:46:07;;;;;;;20.00;14.45;;;12.00;76.90;;;;;;4994957;28;20022;-73
2021/11/17 07:48:32;;;;;;;24.60;14.85;;;12.10;74.40;;;;;;4986345;28;20616;-76
2021/11/17 07:51:00;;;;;;;24.08;14.65;;;12.10;71.60;;;;;;4975194;28;20034;-80
2021/11/17 07:53:27;;;;;;;20.15;14.80;;;12.10;70.30;;;;;;4973900;28;20046;-76
2021/11/17 07:55:55;;;;;;;22.35;15.48;;;12.00;68.60;;;;;;4977806;28;20088;-78
2021/11/17 07:58:24;;;;;;;20.83;14.30;;;12.10;76.80;;;;;;4973351;28;20123;-69
2021/11/17 08:00:52;;;;;;;18.40;14.80;;;12.10;84.90;;;;;;4974643;28;20149;-71
2021/11/17 08:03:20;;;;;;;23.45;14.98;;;12.10;70.30;;;;;;4974918;28;20031;-70
2021/11/17 08:05:48;;;;;;;18.90;14.55;;;12.10;70.20;;;;;;5016642;28;20032;-69
2021/11/17 08:08:16;;;;;;;19.63;15.20;;;12.20;70.10;;;;;;4984545;28;20766;-68
2021/11/17 08:10:42;;;;;;;22.88;15.45;;;12.20;79.20;;;;;;4994024;28;20038;-72
2021/11/17 08:13:08;;;;;;;19.73;14.60;;;12.20;69.30;;;;;;4994089;28;20066;-71
2021/11/17 08:15:34;;;;;;;21.95;15.02;;;;;;;;;;4993971;28;20364;-72
2021/11/17 08:18:00;;;;;;;22.00;13.88;;;12.20;67.60;;;;;;5010691;28;20034;-72
2021/11/17 08:20:26;;;;;;;20.02;15.25;;;12.20;68.00;;;;;;5013313;28;20036;-71
2021/11/17 08:22:56;;;;;;;21.55;14.68;;;12.30;68.00;;;;;;5013518;28;20416;-73
2021/11/17 08:25:24;;;;;;;27.55;16.30;;;12.30;67.70;;;;;;5013733;28;20564;-73
2021/11/17 08:27:51;;;;;;;20.65;14.52;;;12.40;67.70;;;;;;5028909;28;20026;-73
2021/11/17 08:30:18;;;;;;;22.52;14.45;;;12.40;67.70;;;;;;5013750;28;20038;-74
2021/11/17 08:32:46;;;;;;;23.67;15.07;;;12.40;67.80;;;;;;5013880;28;20061;-72
2021/11/17 08:35:15;;;;;;;18.90;14.60;;;12.50;67.60;;;;;;5013666;28;20079;-70
2021/11/17 08:37:42;;;;;;;19.00;14.50;;;12.60;72.90;;;;;;5013786;28;20462;-72
2021/11/17 08:40:14;;;;;;;21.17;14.45;;;12.60;68.00;;;;;;5012411;28;20616;-70
2021/11/17 08:42:41;;;;;;;21.73;14.95;;;;;;;;;;5013256;28;20025;-71
2021/11/17 08:45:08;;;;;;;20.00;14.85;;;12.80;87.20;;;;;;5013744;28;20026;-71
2021/11/17 08:47:35;;;;;;;23.15;15.07;;;12.80;82.90;;;;;;5013812;28;20077;-71
2021/11/17 08:50:01;;;;;;;19.70;15.63;;;12.90;83.30;;;;;;5013583;28;20034;-71
2021/11/17 08:52:27;;;;;;;18.58;13.73;;;;;;;;;;5012043;28;20064;-71
2021/11/17 08:54:54;;;;;;;24.40;15.10;;;12.80;67.60;;;;;;5013213;28;20026;-72
2021/11/17 08:57:20;;;;;;;19.02;14.73;;;12.90;67.90;;;;;;5013508;28;20053;-71
2021/11/17 08:59:48;;;;;;;24.33;14.60;;;12.90;67.70;;;;;;5013411;28;20135;-72
2021/11/17 09:02:14;;;;;;;19.70;15.55;;;12.90;67.70;;;;;;5013241;28;20540;-73
2021/11/17 09:04:41;;;;;;;20.33;15.18;;;13.00;67.90;;;;;;5013261;28;20030;-73
2021/11/17 09:07:07;;;;;;;19.05;14.48;;;13.00;68.60;;;;;;5013323;28;20029;-70
2021/11/17 09:09:34;;;;;;;26.70;15.80;;;13.00;68.40;;;;;;5013274;28;20401;-69
2021/11/17 09:12:00;;;;;;;23.55;15.43;;;13.10;68.80;;;;;;5013451;28;20030;-68
2021/11/17 09:14:26;;;;;;;29.30;15.57;;;13.10;69.00;;;;;;5013788;28;20026;-69
2021/11/17 09:16:52;;;;;;;53.40;15.77;;;13.10;68.80;;;;;;5013535;28;20030;-69
2021/11/17 09:19:20;;;;;;;27.25;15.80;;;13.10;68.30;;;;;;5012920;28;20068;-67
2021/11/17 09:21:47;;;;;;;40.35;16.65;;;13.10;68.10;;;;;;5012787;28;20105;-68
2021/11/17 09:24:15;;;;;;;27.08;15.45;;;13.10;68.60;;;;;;5013006;28;20026;-68
2021/11/17 09:26:42;;;;;;;22.25;15.02;;;13.10;68.60;;;;;;5013165;28;20470;-68
2021/11/17 09:29:09;;;;;;;24.35;15.68;;;13.20;68.70;;;;;;5013219;28;20057;-68
2021/11/17 09:31:36;;;;;;;21.15;14.68;;;13.20;68.80;;;;;;5012625;28;20105;-68
2021/11/17 09:34:03;;;;;;;20.63;15.40;;;13.20;68.90;;;;;;5011969;28;20035;-69
2021/11/17 09:36:32;;;;;;;19.23;15.15;;;13.20;68.50;;;;;;5012258;28;20085;-68
2021/11/17 09:38:58;;;;;;;24.05;15.05;;;13.30;68.20;;;;;;5012676;28;20482;-68
2021/11/17 09:41:33;;;;;;;24.00;15.48;;;13.30;68.20;;;;;;5013258;28;20030;-68
2021/11/17 09:44:04;;;;;;;21.05;15.10;;;13.30;68.20;;;;;;5013175;28;20425;-68
2021/11/17 09:46:31;;;;;;;20.30;15.40;;;13.30;68.10;;;;;;5013015;28;20057;-68
2021/11/17 09:49:04;;;;;;;18.23;13.80;;;13.40;68.40;;;;;;5013060;28;20033;-68
2021/11/17 09:51:42;;;;;;;22.05;14.73;;;13.50;68.30;;;;;;5013081;28;20096;-68
2021/11/17 09:54:40;;;;;;;20.65;14.30;;;13.70;67.80;;;;;;5012107;28;20026;-68
2021/11/17 09:57:31;;;;;;;16.55;13.32;;;13.80;67.80;;;;;;5010736;28;20026;-68
2021/11/17 10:00:12;;;;;;;21.30;15.13;;;14.00;67.00;;;;;;5006885;28;20050;-68
2021/11/17 10:02:47;;;;;;;20.23;14.60;;;14.20;67.30;;;;;;5012893;28;20045;-68
2021/11/17 10:06:21;;;;;;;20.30;14.02;;;14.30;66.20;;;;;;5017022;28;20479;-68
2021/11/17 10:11:30;;;;;;;20.38;13.55;;;14.60;65.20;;;;;;5016697;28;20084;-69
2021/11/17 10:14:16;;;;;;;21.67;13.95;;;14.70;65.10;;;;;;5016753;28;20505;-68
2021/11/17 10:16:42;;;;;;;22.02;13.98;;;14.80;64.40;;;;;;5016968;28;20026;-69
2021/11/17 10:19:26;;;;;;;16.85;12.73;;;15.00;64.40;;;;;;5016519;28;20409;-69
2021/11/17 10:22:04;;;;;;;18.77;13.43;;;15.00;64.20;;;;;;5015374;28;20512;-68
2021/11/17 10:24:49;;;;;;;21.38;13.68;;;15.20;64.10;;;;;;5016723;28;20029;-68
2021/11/17 10:27:23;;;;;;;19.50;13.27;;;15.30;64.30;;;;;;5016564;28;20131;-68
2021/11/17 10:29:57;;;;;;;19.65;13.15;;;15.30;62.90;;;;;;5016332;28;20024;-68
2021/11/17 10:32:37;;;;;;;20.45;13.40;;;15.40;62.30;;;;;;5016475;28;20068;-70
2021/11/17 10:35:22;;;;;;;18.45;13.07;;;15.40;62.80;;;;;;5016312;28;20120;-70
2021/11/17 10:38:17;;;;;;;20.67;14.07;;;15.40;61.90;;;;;;5016237;28;20385;-70
2021/11/17 10:41:17;;;;;;;20.17;13.02;;;15.30;62.30;;;;;;5015937;28;20026;-70
2021/11/17 10:43:59;;;;;;;19.05;13.55;;;15.30;63.20;;;;;;5013886;28;20113;-69
2021/11/17 10:46:28;;;;;;;21.90;13.10;;;15.20;63.50;;;;;;5016088;28;20108;-69
2021/11/17 10:49:26;;;;;;;15.68;12.65;;;15.20;63.40;;;;;;5015836;28;20041;-69
2021/11/17 10:52:04;;;;;;;18.10;12.90;;;15.10;63.80;;;;;;5015430;28;20452;-69
2021/11/17 10:54:32;;;;;;;17.52;12.85;;;15.10;64.20;;;;;;5016153;28;20026;-70
2021/11/17 10:57:01;;;;;;;20.23;14.50;;;15.10;64.40;;;;;;5015774;28;20022;-70
2021/11/17 10:59:28;;;;;;;17.83;14.27;;;15.00;64.20;;;;;;5015625;28;20427;-69
2021/11/17 11:01:54;;;;;;;16.80;13.43;;;15.00;63.80;;;;;;5015794;28;20092;-69
2021/11/17 11:04:37;;;;;;;16.10;12.70;;;15.00;63.80;;;;;;5015550;28;20026;-69
2021/11/17 11:07:26;;;;;;;22.70;13.40;;;15.00;64.40;;;;;;5015786;28;20540;-69
2021/11/17 11:10:09;;;;;;;15.82;12.38;;;15.00;63.30;;;;;;5008898;28;20045;-69
2021/11/17 11:12:36;;;;;;;16.35;13.18;;;14.90;63.40;;;;;;5015602;28;20025;-69
2021/11/17 11:15:27;;;;;;;22.33;13.95;;;14.90;63.10;;;;;;5015528;28;20415;-69
2021/11/17 11:18:10;;;;;;;18.27;13.93;;;14.90;63.50;;;;;;5015456;28;20022;-69
2021/11/17 11:20:57;;;;;;;18.08;13.65;;;14.90;64.00;;;;;;5015558;28;20058;-69
2021/11/17 11:23:29;;;;;;;20.90;13.52;;;14.80;64.40;;;;;;5014524;28;20474;-70
2021/11/17 11:26:03;;;;;;;17.88;13.45;;;14.80;64.40;;;;;;5014923;28;20049;-69
2021/11/17 11:28:29;;;;;;;24.88;13.90;;;14.80;64.20;;;;;;5015296;28;20033;-70
2021/11/17 11:31:07;;;;;;;17.98;13.40;;;14.80;64.10;;;;;;5015196;28;20118;-70
2021/11/17 11:33:36;;;;;;;17.33;13.70;;;14.80;64.40;;;;;;5014969;28;20101;-70
2021/11/17 11:36:10;;;;;;;17.90;13.15;;;14.90;64.30;;;;;;5014626;28;20084;-69
2021/11/17 11:38:47;;;;;;;16.38;13.60;;;14.90;63.90;;;;;;5014666;28;20034;-69
2021/11/17 11:41:25;;;;;;;17.48;14.27;;;14.90;63.70;;;;;;5014686;28;20018;-70
2021/11/17 11:44:19;;;;;;;24.58;14.45;;;14.90;63.50;;;;;;5014725;28;20032;-70
2021/11/17 11:46:52;;;;;;;17.90;14.13;;;15.00;63.50;;;;;;5014709;28;20025;-70
2021/11/17 11:49:36;;;;;;;18.83;12.98;;;15.00;63.50;;;;;;5014183;28;20026;-69
2021/11/17 11:52:13;;;;;;;16.58;12.52;;;15.00;63.80;;;;;;5014402;28;20443;-69
2021/11/17 11:55:02;;;;;;;22.27;13.60;;;15.00;63.30;;;;;;5014454;28;20022;-69
2021/11/17 11:57:45;;;;;;;18.55;13.25;;;15.00;63.40;;;;;;5008848;28;20041;-70
2021/11/17 12:00:13;;;;;;;24.67;13.80;;;15.00;63.40;;;;;;5014100;28;20482;-70
2021/11/17 12:02:49;;;;;;;18.33;13.25;;;14.90;62.90;;;;;;5014511;28;20080;-69
2021/11/17 12:05:37;;;;;;;17.00;13.07;;;14.90;62.90;;;;;;5014310;28;20026;-69
2021/11/17 12:08:16;;;;;;;17.85;13.23;;;14.90;62.80;;;;;;5014085;28;20026;-70
2021/11/17 12:10:47;;;;;;;17.75;13.32;;;14.90;62.80;;;;;;5014490;28;20014;-70
2021/11/17 12:13:22;;;;;;;19.20;14.15;;;14.80;62.80;;;;;;5014249;28;20025;-70
2021/11/17 12:16:00;;;;;;;15.07;12.32;;;14.90;63.10;;;;;;5013567;28;20076;-69
2021/11/17 12:18:26;;;;;;;19.58;14.50;;;14.80;62.90;;;;;;5013690;28;20042;-69
2021/11/17 12:21:08;;;;;;;22.70;15.40;;;14.80;62.70;;;;;;4983337;28;20049;-70
2021/11/17 12:23:39;;;;;;;23.27;14.30;;;14.80;62.80;;;;;;4985006;28;20014;-73
2021/11/17 12:26:16;;;;;;;19.20;14.05;;;14.70;62.70;;;;;;4983291;28;20031;-73
2021/11/17 12:28:48;;;;;;;18.95;13.43;;;14.70;62.90;;;;;;4980647;28;20037;-73
2021/11/17 12:31:39;;;;;;;20.85;14.13;;;14.60;62.90;;;;;;4981634;28;20068;-71
2021/11/17 12:34:17;;;;;;;21.27;14.80;;;14.60;63.20;;;;;;4991834;28;20037;-71
2021/11/17 12:36:58;;;;;;;18.25;14.13;;;14.60;63.20;;;;;;4992746;28;20101;-72
2021/11/17 12:39:37;;;;;;;24.30;15.55;;;14.60;63.20;;;;;;4991008;28;20038;-71
2021/11/17 12:42:07;;;;;;;22.33;15.05;;;14.60;63.30;;;;;;4991965;28;20022;-68
2021/11/17 12:44:44;;;;;;;25.83;14.98;;;14.60;63.30;;;;;;4994184;28;20030;-70
2021/11/17 12:47:30;;;;;;;23.20;15.27;;;14.60;63.40;;;;;;4993785;28;20030;-68
2021/11/17 12:49:59;;;;;;;21.05;14.85;;;14.60;63.60;;;;;;4994004;28;20383;-70
2021/11/17 12:52:46;;;;;;;19.90;14.75;;;14.60;63.80;;;;;;4993787;28;20030;-70
2021/11/17 12:55:23;;;;;;;20.40;14.27;;;14.60;63.90;;;;;;4993188;28;20411;-69
2021/11/17 12:58:09;;;;;;;18.73;14.60;;;14.50;63.50;;;;;;4991090;28;20030;-68
2021/11/17 13:00:43;;;;;;;19.27;14.60;;;14.60;63.80;;;;;;4990848;28;20510;-69
2021/11/17 13:03:21;;;;;;;23.17;15.00;;;14.50;63.70;;;;;;4992617;28;20027;-70
2021/11/17 13:06:00;;;;;;;19.83;15.30;;;14.50;63.50;;;;;;4993968;28;20536;-70
2021/11/17 13:08:32;;;;;;;22.85;14.90;;;14.50;63.30;;;;;;4993598;28;20061;-70
2021/11/17 13:10:58;;;;;;;23.45;14.68;;;14.50;63.30;;;;;;4992189;28;20578;-70
2021/11/17 13:13:42;;;;;;;20.23;14.88;;;14.50;63.30;;;;;;5009020;28;20383;-70
2021/11/17 13:16:34;;;;;;;21.02;14.20;;;14.50;63.70;;;;;;4993580;28;20030;-68
2021/11/17 13:19:04;;;;;;;22.58;14.88;;;14.50;63.50;;;;;;4992744;28;20097;-70
2021/11/17 13:21:39;;;;;;;23.55;16.08;;;14.40;63.20;;;;;;4993754;28;20018;-69
2021/11/17 13:24:16;;;;;;;22.15;14.82;;;14.40;64.10;;;;;;4992324;28;20030;-73
2021/11/17 13:27:13;;;;;;;20.25;15.15;;;14.40;63.70;;;;;;4990921;28;20034;-71
2021/11/17 13:29:58;;;;;;;20.58;15.52;;;14.30;64.00;;;;;;4992129;28;20030;-71
2021/11/17 13:32:37;;;;;;;21.52;14.82;;;14.30;64.60;;;;;;5008438;28;20022;-71
2021/11/17 13:35:36;;;;;;;21.08;15.50;;;14.30;64.20;;;;;;4989994;28;20022;-72
2021/11/17 13:38:24;;;;;;;23.55;16.13;;;14.30;64.50;;;;;;4975618;28;20462;-73
2021/11/17 13:40:56;;;;;;;25.38;15.30;;;14.30;64.60;;;;;;4977696;28;20030;-71
2021/11/17 13:43:23;;;;;;;26.05;15.40;;;14.30;65.00;;;;;;4977878;28;20031;-71
2021/11/17 13:45:52;;;;;;;21.85;15.77;;;14.20;65.00;;;;;;4977107;28;20038;-72
2021/11/17 13:48:20;;;;;;;21.77;14.90;;;14.30;65.20;;;;;;4977757;28;20097;-71
2021/11/17 13:50:48;;;;;;;20.23;14.70;;;14.20;65.10;;;;;;4977571;28;20034;-72
2021/11/17 13:53:15;;;;;;;33.50;16.83;;;14.20;65.40;;;;;;4977799;28;20042;-72
2021/11/17 13:55:52;;;;;;;22.30;15.88;;;14.20;65.70;;;;;;4977187;28;20043;-72
2021/11/17 13:58:18;;;;;;;20.10;15.65;;;14.20;66.00;;;;;;4992219;28;20035;-71
2021/11/17 14:00:44;;;;;;;24.92;15.82;;;14.30;65.80;;;;;;4977488;28;20073;-72
2021/11/17 14:03:11;;;;;;;22.00;15.60;;;14.30;65.80;;;;;;4977777;28;20027;-72
2021/11/17 14:05:40;;;;;;;22.45;15.07;;;14.30;65.80;;;;;;4977512;28;20090;-72
2021/11/17 14:08:07;;;;;;;24.00;14.52;;;14.20;65.90;;;;;;4992145;28;20034;-72
2021/11/17 14:10:35;;;;;;;26.60;15.95;;;14.30;66.00;;;;;;4977193;28;20034;-72
2021/11/17 14:13:01;;;;;;;21.27;14.63;;;14.20;66.10;;;;;;4976661;28;20027;-71
2021/11/17 14:15:27;;;;;;;22.55;15.77;;;14.30;66.20;;;;;;4976949;28;20475;-72
2021/11/17 14:17:53;;;;;;;19.48;13.88;;;14.20;66.20;;;;;;4977340;28;20041;-72
2021/11/17 14:20:19;;;;;;;22.48;15.50;;;14.20;66.10;;;;;;4977220;28;20035;-72
2021/11/17 14:22:45;;;;;;;23.08;15.63;;;14.30;66.40;;;;;;4977362;28;20030;-72
2021/11/17 14:25:17;;;;;;;23.52;14.93;;;14.20;66.30;;;;;;4977228;28;20073;-73
2021/11/17 14:27:46;;;;;;;20.50;14.60;;;14.20;66.40;;;;;;4977182;28;20054;-72
2021/11/17 14:30:30;;;;;;;22.88;15.23;;;14.20;66.40;;;;;;4976785;28;20036;-72
2021/11/17 14:32:57;;;;;;;21.55;14.90;;;14.30;66.20;;;;;;4976798;28;20031;-72
2021/11/17 14:35:26;;;;;;;22.23;14.50;;;14.30;67.00;;;;;;4976547;28;20022;-72
2021/11/17 14:37:54;;;;;;;18.40;14.40;;;14.30;66.50;;;;;;4976899;28;20023;-72
2021/11/17 14:40:21;;;;;;;18.33;14.57;;;14.30;66.50;;;;;;4976323;28;20058;-72
2021/11/17 14:42:47;;;;;;;19.85;14.25;;;14.20;66.50;;;;;;4976495;28;20594;-72
2021/11/17 14:45:18;;;;;;;19.75;14.73;;;14.20;66.60;;;;;;4976731;28;20098;-72
2021/11/17 14:47:44;;;;;;;19.58;15.00;;;14.20;66.60;;;;;;4976569;28;20427;-72
2021/11/17 14:50:10;;;;;;;22.25;14.82;;;14.20;66.50;;;;;;4975853;28;20029;-72
2021/11/17 14:52:38;;;;;;;19.90;15.20;;;14.20;66.80;;;;;;4976555;28;20035;-72
2021/11/17 14:55:07;;;;;;;28.25;16.77;;;14.20;67.00;;;;;;4976667;28;20018;-72
2021/11/17 14:57:35;;;;;;;26.70;17.60;;;14.20;67.70;;;;;;4976729;28;20039;-72
2021/11/17 15:00:03;;;;;;;27.08;15.50;;;14.20;67.10;;;;;;4976411;28;20030;-72
2021/11/17 15:02:30;;;;;;;29.08;16.42;;;14.20;67.00;;;;;;4977033;28;20399;-72
2021/11/17 15:04:56;;;;;;;22.60;15.85;;;14.20;67.00;;;;;;4976690;28;20030;-69
2021/11/17 15:07:22;;;;;;;21.52;15.98;;;14.20;67.10;;;;;;4976499;28;20031;-72
2021/11/17 15:09:47;;;;;;;21.13;15.20;;;14.20;67.10;;;;;;4976419;28;20146;-71
2021/11/17 15:12:18;;;;;;;21.52;14.95;;;14.20;67.30;;;;;;4975557;28;20029;-72
2021/11/17 15:14:45;;;;;;;21.23;15.52;;;14.10;67.20;;;;;;4973776;28;20034;-71
2021/11/17 15:17:11;;;;;;;22.20;16.65;;;14.20;67.20;;;;;;4973902;28;20121;-71
2021/11/17 15:19:37;;;;;;;24.42;15.63;;;14.20;67.10;;;;;;4974668;28;20428;-71
2021/11/17 15:22:04;;;;;;;25.50;15.57;;;14.10;67.00;;;;;;4976189;28;20106;-73
2021/11/17 15:24:31;;;;;;;18.45;14.60;;;14.10;67.30;;;;;;4976386;28;20022;-75
2021/11/17 15:27:08;;;;;;;25.40;15.32;;;14.10;67.30;;;;;;4975815;28;20054;-72
2021/11/17 15:29:36;;;;;;;24.17;15.32;;;14.10;67.30;;;;;;4975371;28;20034;-75
2021/11/17 15:32:02;;;;;;;29.48;16.27;;;14.10;67.40;;;;;;4975967;28;20027;-75
2021/11/17 15:34:28;;;;;;;23.33;16.50;;;14.10;67.60;;;;;;4974891;28;20029;-75
2021/11/17 15:36:54;;;;;;;21.92;16.88;;;14.10;67.70;;;;;;4975955;28;20105;-76
2021/11/17 15:39:20;;;;;;;25.38;17.48;;;14.10;67.90;;;;;;4975837;28;20031;-75